createdAt,value
2024-03-26T00:01:48.874Z,25.00
2024-03-26T00:04:20.186Z,23.70
2024-03-26T00:06:51.593Z,23.10
2024-03-26T00:09:23.075Z,24.40
2024-03-26T00:11:54.527Z,23.60
2024-03-26T00:14:25.824Z,24.70
2024-03-26T00:16:57.167Z,26.20
2024-03-26T00:19:28.982Z,23.80
2024-03-26T00:24:30.286Z,24.50
2024-03-26T00:27:01.623Z,20.90
2024-03-26T00:29:32.955Z,20.10
2024-03-26T00:32:04.459Z,26.80
2024-03-26T00:34:36.007Z,24.60
2024-03-26T00:37:07.371Z,25.30
2024-03-26T00:39:38.704Z,28.00
2024-03-26T00:42:10.003Z,26.10
2024-03-26T00:44:41.324Z,26.60
2024-03-26T00:47:12.617Z,23.30
2024-03-26T00:49:43.957Z,25.40
2024-03-26T00:52:15.301Z,24.00
2024-03-26T00:54:47.823Z,25.00
2024-03-26T00:57:19.179Z,29.50
2024-03-26T00:59:50.594Z,28.20
2024-03-26T01:02:22.294Z,25.50
2024-03-26T01:04:53.876Z,28.20
2024-03-26T01:07:25.175Z,28.70
2024-03-26T01:09:56.524Z,28.00
2024-03-26T01:12:27.820Z,29.70
2024-03-26T01:14:59.279Z,32.40
2024-03-26T01:17:30.697Z,28.40
2024-03-26T01:20:02.394Z,27.40
2024-03-26T01:22:33.747Z,28.70
2024-03-26T01:25:07.014Z,31.00
2024-03-26T01:27:38.371Z,32.40
2024-03-26T01:30:12.567Z,30.90
2024-03-26T01:32:44.054Z,30.30
2024-03-26T01:35:15.606Z,33.80
2024-03-26T01:37:48.377Z,34.20
2024-03-26T01:40:19.745Z,35.20
2024-03-26T01:42:51.812Z,33.70
2024-03-26T01:45:23.489Z,36.40
2024-03-26T01:47:55.035Z,35.50
2024-03-26T01:50:26.656Z,47.50
2024-03-26T01:52:58.052Z,37.80
2024-03-26T01:55:30.154Z,32.80
2024-03-26T01:58:03.476Z,32.80
2024-03-26T02:00:35.322Z,40.90
2024-03-26T02:05:37.377Z,28.60
2024-03-26T02:08:11.192Z,27.90
2024-03-26T02:10:42.799Z,31.80
2024-03-26T02:13:14.116Z,46.10
2024-03-26T02:15:45.521Z,27.20
2024-03-26T02:18:16.896Z,23.10
2024-03-26T02:20:48.977Z,21.20
2024-03-26T02:23:24.075Z,24.50
2024-03-26T02:25:55.378Z,22.80
2024-03-26T02:28:26.793Z,23.20
2024-03-26T02:30:58.160Z,22.20
2024-03-26T02:33:29.848Z,25.40
2024-03-26T02:36:01.254Z,24.60
2024-03-26T02:38:32.653Z,24.90
2024-03-26T02:41:04.619Z,28.80
2024-03-26T02:43:38.623Z,22.80
2024-03-26T02:46:09.975Z,21.10
2024-03-26T02:48:41.313Z,22.30
2024-03-26T02:51:12.679Z,22.60
2024-03-26T02:53:44.031Z,26.70
2024-03-26T02:56:15.416Z,22.40
2024-03-26T02:58:46.697Z,19.50
2024-03-26T03:01:19.351Z,19.30
2024-03-26T03:04:18.527Z,20.90
2024-03-26T03:06:49.928Z,18.60
2024-03-26T03:09:21.272Z,21.50
2024-03-26T03:11:52.581Z,20.00
2024-03-26T03:14:24.026Z,19.40
2024-03-26T03:16:55.448Z,20.40
2024-03-26T03:19:26.785Z,21.70
2024-03-26T03:21:59.190Z,21.90
2024-03-26T03:24:30.510Z,18.40
2024-03-26T03:27:01.863Z,19.00
2024-03-26T03:29:33.240Z,19.80
2024-03-26T03:32:04.795Z,17.60
2024-03-26T03:34:36.199Z,20.20
2024-03-26T03:37:07.548Z,20.50
2024-03-26T03:39:38.911Z,21.90
2024-03-26T03:42:10.294Z,19.10
2024-03-26T03:44:42.008Z,16.50
2024-03-26T03:47:13.356Z,19.40
2024-03-26T03:49:45.083Z,19.80
2024-03-26T03:52:16.753Z,23.30
2024-03-26T03:54:48.045Z,19.60
2024-03-26T03:57:19.609Z,19.60
2024-03-26T03:59:51.415Z,17.80
2024-03-26T04:02:22.747Z,16.70
2024-03-26T04:04:54.079Z,18.30
2024-03-26T04:07:25.554Z,22.40
2024-03-26T04:09:57.277Z,17.70
2024-03-26T04:12:29.449Z,19.40
2024-03-26T04:15:00.783Z,16.30
2024-03-26T04:17:32.134Z,18.40
2024-03-26T04:20:03.531Z,19.30
2024-03-26T04:22:35.270Z,20.40
2024-03-26T04:25:07.430Z,18.80
2024-03-26T04:27:39.065Z,20.20
2024-03-26T04:30:11.776Z,21.50
2024-03-26T04:32:43.280Z,23.20
2024-03-26T04:35:14.682Z,22.00
2024-03-26T04:37:45.990Z,22.50
2024-03-26T04:40:18.682Z,19.00
2024-03-26T04:42:50.002Z,21.80
2024-03-26T04:45:21.364Z,22.70
2024-03-26T04:47:52.747Z,20.40
2024-03-26T04:50:24.088Z,21.90
2024-03-26T04:52:55.993Z,21.90
2024-03-26T04:57:58.080Z,22.70
2024-03-26T05:00:29.653Z,21.40
2024-03-26T05:03:03.032Z,22.80
2024-03-26T05:05:34.816Z,19.30
2024-03-26T05:10:36.674Z,19.90
2024-03-26T05:13:08.234Z,26.70
2024-03-26T05:15:39.784Z,21.00
2024-03-26T05:18:11.541Z,20.60
2024-03-26T05:20:43.097Z,21.00
2024-03-26T05:23:15.723Z,20.80
2024-03-26T05:25:47.231Z,19.30
2024-03-26T05:28:18.795Z,24.10
2024-03-26T05:30:51.163Z,24.40
2024-03-26T05:33:22.717Z,20.20
2024-03-26T05:35:54.299Z,21.00
2024-03-26T05:38:25.825Z,20.50
2024-03-26T05:40:58.209Z,21.00
2024-03-26T05:43:29.759Z,20.60
2024-03-26T05:46:01.220Z,21.20
2024-03-26T05:48:32.651Z,20.90
2024-03-26T05:51:04.057Z,20.20
2024-03-26T05:53:35.448Z,18.80
2024-03-26T05:56:09.224Z,21.30
2024-03-26T05:58:41.965Z,21.30
2024-03-26T06:01:13.336Z,20.30
2024-03-26T06:03:45.177Z,22.50
2024-03-26T06:08:46.641Z,20.10
2024-03-26T06:11:18.016Z,21.40
2024-03-26T06:13:49.393Z,19.90
2024-03-26T06:16:21.537Z,17.50
2024-03-26T06:18:52.960Z,16.50
2024-03-26T06:21:24.296Z,17.10
2024-03-26T06:23:55.976Z,16.00
2024-03-26T06:26:27.415Z,19.10
2024-03-26T06:28:58.913Z,19.40
2024-03-26T06:31:30.227Z,17.60
2024-03-26T06:34:01.589Z,16.30
2024-03-26T06:36:32.915Z,15.30
2024-03-26T06:39:05.318Z,16.60
2024-03-26T06:41:36.869Z,18.80
2024-03-26T06:44:08.346Z,18.20
2024-03-26T06:46:40.572Z,19.30
2024-03-26T06:49:14.233Z,18.90
2024-03-26T06:51:46.096Z,17.10
2024-03-26T06:54:18.780Z,17.10
2024-03-26T06:56:50.319Z,16.00
2024-03-26T06:59:21.623Z,20.70
2024-03-26T07:01:52.950Z,19.30
2024-03-26T07:04:24.284Z,20.50
2024-03-26T07:06:55.563Z,19.80
2024-03-26T07:09:27.127Z,18.60
2024-03-26T07:11:58.460Z,18.00
2024-03-26T07:14:29.850Z,17.60
2024-03-26T07:17:01.146Z,16.90
2024-03-26T07:19:32.535Z,17.10
2024-03-26T07:22:04.854Z,15.70
2024-03-26T07:24:36.992Z,18.60
2024-03-26T07:27:08.343Z,19.40
2024-03-26T07:29:40.323Z,19.60
2024-03-26T07:32:11.656Z,17.90
2024-03-26T07:34:44.002Z,20.20
2024-03-26T07:37:16.529Z,19.80
2024-03-26T07:39:48.314Z,18.60
2024-03-26T07:42:19.591Z,17.10
2024-03-26T07:44:51.835Z,17.40
2024-03-26T07:47:23.462Z,17.30
2024-03-26T07:52:24.876Z,18.90
2024-03-26T07:54:56.319Z,18.70
2024-03-26T07:57:27.645Z,18.10
2024-03-26T07:59:58.983Z,17.90
2024-03-26T08:02:30.551Z,18.60
2024-03-26T08:07:33.307Z,18.00
2024-03-26T08:10:05.002Z,16.50
2024-03-26T08:15:08.315Z,18.30
2024-03-26T08:17:41.870Z,16.80
2024-03-26T08:20:15.150Z,17.60
2024-03-26T08:22:46.670Z,14.50
2024-03-26T08:25:18.709Z,14.80
2024-03-26T08:27:49.998Z,14.90
2024-03-26T08:30:21.601Z,13.70
2024-03-26T08:32:54.246Z,13.40
2024-03-26T08:35:25.708Z,13.60
2024-03-26T08:37:57.017Z,14.40
2024-03-26T08:40:28.331Z,14.70
2024-03-26T08:42:59.691Z,13.50
2024-03-26T08:45:31.016Z,15.80
2024-03-26T08:48:02.448Z,12.50
2024-03-26T08:50:33.863Z,11.50
2024-03-26T08:53:06.008Z,13.00
2024-03-26T08:55:37.558Z,11.80
2024-03-26T08:58:09.531Z,13.90
2024-03-26T09:00:41.492Z,12.10
2024-03-26T09:05:43.172Z,14.00
2024-03-26T09:10:44.847Z,11.30
2024-03-26T09:15:46.727Z,13.60
2024-03-26T09:18:18.289Z,10.00
2024-03-26T09:23:19.963Z,14.00
2024-03-26T09:25:51.734Z,11.00
2024-03-26T09:28:23.273Z,11.70
2024-03-26T09:33:25.368Z,9.40
2024-03-26T09:35:56.921Z,11.80
2024-03-26T09:41:18.578Z,10.20
2024-03-26T09:43:50.976Z,10.00
2024-03-26T09:46:23.890Z,12.40
2024-03-26T09:48:56.552Z,14.10
2024-03-26T09:51:29.124Z,11.90
2024-03-26T09:54:01.861Z,12.70
2024-03-26T09:56:33.325Z,12.20
2024-03-26T10:01:37.867Z,10.90
2024-03-26T10:04:10.759Z,12.70
2024-03-26T10:06:43.074Z,10.90
2024-03-26T10:09:16.634Z,11.60
2024-03-26T10:11:49.412Z,14.20
2024-03-26T10:14:22.213Z,14.50
2024-03-26T10:16:53.959Z,11.80
2024-03-26T10:19:26.132Z,15.50
2024-03-26T10:21:57.695Z,14.70
2024-03-26T10:24:29.043Z,13.70
2024-03-26T10:29:31.228Z,13.10
2024-03-26T10:32:02.749Z,13.00
2024-03-26T10:34:37.956Z,14.10
2024-03-26T10:37:11.168Z,13.70
2024-03-26T10:39:48.356Z,12.80
2024-03-26T10:42:21.384Z,11.10
2024-03-26T10:44:59.410Z,10.60
2024-03-26T10:47:38.585Z,12.50
2024-03-26T10:50:11.608Z,10.40
2024-03-26T10:52:46.241Z,13.30
2024-03-26T10:55:18.960Z,10.70
2024-03-26T10:57:51.205Z,10.30
2024-03-26T11:00:22.813Z,10.50
2024-03-26T11:02:58.411Z,10.20
2024-03-26T11:05:33.702Z,10.30
2024-03-26T11:08:06.921Z,9.50
2024-03-26T11:11:01.313Z,12.00
2024-03-26T11:13:35.089Z,11.90
2024-03-26T11:16:10.467Z,11.00
2024-03-26T11:18:45.966Z,11.10
2024-03-26T11:21:18.828Z,9.40
2024-03-26T11:23:50.996Z,11.30
2024-03-26T11:26:27.061Z,10.50
2024-03-26T11:29:01.686Z,10.70
2024-03-26T11:31:34.468Z,9.90
2024-03-26T11:34:08.796Z,9.40
2024-03-26T11:36:40.653Z,8.40
2024-03-26T11:39:12.823Z,10.00
2024-03-26T11:41:46.837Z,9.70
2024-03-26T11:44:18.392Z,8.40
2024-03-26T11:46:50.156Z,9.20
2024-03-26T11:49:22.730Z,10.70
2024-03-26T11:51:54.285Z,8.70
2024-03-26T11:54:26.592Z,8.90
2024-03-26T11:56:58.420Z,9.00
2024-03-26T11:59:31.006Z,8.50
2024-03-26T12:02:03.393Z,9.40
2024-03-26T12:04:34.928Z,9.50
2024-03-26T12:07:08.844Z,9.00
2024-03-26T12:09:42.402Z,9.20
2024-03-26T12:12:17.435Z,10.20
2024-03-26T12:14:50.359Z,9.30
2024-03-26T12:17:22.143Z,10.60
2024-03-26T12:19:53.684Z,8.80
2024-03-26T12:22:25.332Z,9.10
2024-03-26T12:24:57.205Z,8.50
2024-03-26T12:27:28.786Z,8.20
2024-03-26T12:30:01.413Z,7.50
2024-03-26T12:32:35.152Z,7.70
2024-03-26T12:35:07.960Z,8.10
2024-03-26T12:37:40.715Z,7.40
2024-03-26T12:40:14.162Z,7.40
2024-03-26T12:42:46.489Z,8.10
2024-03-26T12:45:18.303Z,6.20
2024-03-26T12:47:50.143Z,5.50
2024-03-26T12:50:22.363Z,5.50
2024-03-26T12:52:53.903Z,4.80
2024-03-26T12:55:25.368Z,5.50
2024-03-26T12:57:56.731Z,5.70
2024-03-26T13:00:28.275Z,6.60
2024-03-26T13:02:59.746Z,4.80
2024-03-26T13:05:31.206Z,6.60
2024-03-26T13:08:02.625Z,6.30
2024-03-26T13:10:34.106Z,5.70
2024-03-26T13:13:05.578Z,5.60
2024-03-26T13:15:36.990Z,5.20
2024-03-26T13:18:08.783Z,7.40
2024-03-26T13:20:41.551Z,6.30
2024-03-26T13:23:12.857Z,5.30
2024-03-26T13:25:44.245Z,7.90
2024-03-26T13:28:15.637Z,6.60
2024-03-26T13:30:47.486Z,5.20
2024-03-26T13:33:18.825Z,5.40
2024-03-26T13:35:50.220Z,5.60
2024-03-26T13:38:21.606Z,4.70
2024-03-26T13:40:55.991Z,5.90
2024-03-26T13:43:31.349Z,6.40
2024-03-26T13:46:02.717Z,6.30
2024-03-26T13:48:37.134Z,5.10
2024-03-26T13:51:10.087Z,6.00
2024-03-26T13:53:41.925Z,5.40
2024-03-26T13:56:13.250Z,5.30
2024-03-26T13:58:44.829Z,6.00
2024-03-26T14:01:16.595Z,6.30
2024-03-26T14:03:48.148Z,5.20
2024-03-26T14:06:19.703Z,7.30
2024-03-26T14:08:51.313Z,9.50
2024-03-26T14:11:23.026Z,5.70
2024-03-26T14:13:54.579Z,5.70
2024-03-26T14:16:26.543Z,4.80
2024-03-26T14:18:58.102Z,5.20
2024-03-26T14:21:29.654Z,5.10
2024-03-26T14:24:01.211Z,5.90
2024-03-26T14:26:32.766Z,5.30
2024-03-26T14:29:05.963Z,5.10
2024-03-26T14:31:38.129Z,4.70
2024-03-26T14:34:09.687Z,4.70
2024-03-26T14:36:41.087Z,6.20
2024-03-26T14:39:12.429Z,4.50
2024-03-26T14:41:43.945Z,4.70
2024-03-26T14:44:18.801Z,6.10
2024-03-26T14:46:50.333Z,4.30
2024-03-26T14:49:22.541Z,4.70
2024-03-26T14:51:54.063Z,4.10
2024-03-26T14:54:25.617Z,4.60
2024-03-26T14:56:57.172Z,3.90
2024-03-26T14:59:29.341Z,4.00
2024-03-26T15:02:01.305Z,3.80
2024-03-26T15:04:32.867Z,3.10
2024-03-26T15:07:08.042Z,5.80
2024-03-26T15:09:39.461Z,4.10
2024-03-26T15:12:11.966Z,4.80
2024-03-26T15:14:43.806Z,5.00
2024-03-26T15:17:15.354Z,4.00
2024-03-26T15:19:47.250Z,4.80
2024-03-26T15:22:18.675Z,4.50
2024-03-26T15:24:50.227Z,5.10
2024-03-26T15:27:40.214Z,4.90
2024-03-26T15:30:32.254Z,5.40
2024-03-26T15:33:04.227Z,5.00
2024-03-26T15:35:35.776Z,4.30
2024-03-26T15:38:07.944Z,5.40
2024-03-26T15:40:40.154Z,4.90
2024-03-26T15:43:11.674Z,5.00
2024-03-26T15:45:46.820Z,5.00
2024-03-26T15:48:18.265Z,5.70
2024-03-26T15:50:49.829Z,5.00
2024-03-26T15:53:21.377Z,5.00
2024-03-26T15:55:53.082Z,4.40
2024-03-26T15:58:24.929Z,5.10
2024-03-26T16:00:56.664Z,5.00
2024-03-26T16:03:28.269Z,4.90
2024-03-26T16:06:00.183Z,4.60
2024-03-26T16:08:31.751Z,4.40
2024-03-26T16:11:13.145Z,5.40
2024-03-26T16:13:45.534Z,4.70
2024-03-26T16:16:17.399Z,3.70
2024-03-26T16:18:49.232Z,4.50
2024-03-26T16:21:20.804Z,4.00
2024-03-26T16:23:52.369Z,4.10
2024-03-26T16:26:23.902Z,5.30
2024-03-26T16:28:58.606Z,3.20
2024-03-26T16:31:30.706Z,4.90
2024-03-26T16:34:03.903Z,4.90
2024-03-26T16:36:35.859Z,3.50
2024-03-26T16:39:08.971Z,4.10
2024-03-26T16:41:45.145Z,4.10
2024-03-26T16:44:17.691Z,4.70
2024-03-26T16:46:50.273Z,4.60
2024-03-26T16:49:21.829Z,4.70
2024-03-26T16:51:55.322Z,6.10
2024-03-26T16:54:26.787Z,5.10
2024-03-26T16:56:58.343Z,4.80
2024-03-26T16:59:30.126Z,4.50
2024-03-26T17:02:01.660Z,7.10
2024-03-26T17:04:34.036Z,6.00
2024-03-26T17:07:06.000Z,7.20
2024-03-26T17:09:37.559Z,9.80
2024-03-26T17:12:09.886Z,9.60
2024-03-26T17:14:41.491Z,10.90
2024-03-26T17:17:14.856Z,9.90
2024-03-26T17:19:47.273Z,9.30
2024-03-26T17:22:18.841Z,10.80
2024-03-26T17:24:50.380Z,9.50
2024-03-26T17:27:22.142Z,9.00
2024-03-26T17:29:53.692Z,9.40
2024-03-26T17:32:25.462Z,10.30
2024-03-26T17:34:57.418Z,9.90
2024-03-26T17:37:28.977Z,10.70
2024-03-26T17:40:00.528Z,8.10
2024-03-26T17:42:34.274Z,7.80
2024-03-26T17:45:06.820Z,10.40
2024-03-26T17:47:39.599Z,9.50
2024-03-26T17:50:12.294Z,8.10
2024-03-26T17:52:46.370Z,7.50
2024-03-26T17:55:18.501Z,7.10
2024-03-26T17:57:50.034Z,9.10
2024-03-26T18:00:22.282Z,7.20
2024-03-26T18:02:53.760Z,7.20
2024-03-26T18:05:25.514Z,9.60
2024-03-26T18:10:27.197Z,6.70
2024-03-26T18:15:30.519Z,5.90
2024-03-26T18:18:02.069Z,7.50
2024-03-26T18:20:36.900Z,9.40
2024-03-26T18:23:09.485Z,6.60
2024-03-26T18:25:41.037Z,7.00
2024-03-26T18:28:12.594Z,7.80
2024-03-26T18:30:44.148Z,7.50
2024-03-26T18:33:15.718Z,7.80
2024-03-26T18:35:57.469Z,9.30
2024-03-26T18:38:31.932Z,7.60
2024-03-26T18:41:07.376Z,7.80
2024-03-26T18:43:41.599Z,7.40
2024-03-26T18:46:14.398Z,8.90
2024-03-26T18:48:47.368Z,10.20
2024-03-26T18:51:18.971Z,9.40
2024-03-26T18:53:50.480Z,10.10
2024-03-26T18:58:52.363Z,9.30
2024-03-26T19:01:26.118Z,10.20
2024-03-26T19:03:57.728Z,10.20
2024-03-26T19:06:29.404Z,10.40
2024-03-26T19:09:02.319Z,15.50
2024-03-26T19:11:35.167Z,13.70
2024-03-26T19:14:06.612Z,15.50
2024-03-26T19:19:10.019Z,12.60
2024-03-26T19:21:41.495Z,12.10
2024-03-26T19:24:13.246Z,13.20
2024-03-26T19:26:44.803Z,10.90
2024-03-26T19:29:16.568Z,10.30
2024-03-26T19:31:48.736Z,10.90
2024-03-26T19:34:19.985Z,9.50
2024-03-26T19:36:56.574Z,10.00
2024-03-26T19:39:28.126Z,11.80
2024-03-26T19:41:59.672Z,11.90
2024-03-26T19:47:01.969Z,10.30
2024-03-26T19:49:33.525Z,12.50
2024-03-26T19:52:05.625Z,13.00
2024-03-26T19:54:37.867Z,13.20
2024-03-26T19:57:09.413Z,9.60
2024-03-26T20:02:11.295Z,11.40
2024-03-26T20:04:42.854Z,8.20
2024-03-26T20:09:50.687Z,9.80
2024-03-26T20:12:22.682Z,10.70
2024-03-26T20:14:54.818Z,9.90
2024-03-26T20:17:26.996Z,9.30
2024-03-26T20:19:58.541Z,8.90
2024-03-26T20:22:30.502Z,8.20
2024-03-26T20:25:02.815Z,9.50
2024-03-26T20:27:34.434Z,9.40
2024-03-26T20:30:10.289Z,10.00
2024-03-26T20:32:41.851Z,10.00
2024-03-26T20:37:46.014Z,7.90
2024-03-26T20:40:17.691Z,8.40
2024-03-26T20:42:49.300Z,7.60
2024-03-26T20:45:20.875Z,9.90
2024-03-26T20:47:52.410Z,10.80
2024-03-26T20:52:53.897Z,9.00
2024-03-26T20:55:25.441Z,9.30
2024-03-26T21:00:27.134Z,10.40
2024-03-26T21:05:29.413Z,10.80
2024-03-26T21:08:00.968Z,10.20
2024-03-26T21:13:05.242Z,10.80
2024-03-26T21:15:36.870Z,11.70
2024-03-26T21:18:14.154Z,8.90
2024-03-26T21:20:51.039Z,8.20
2024-03-26T21:23:22.794Z,9.30
2024-03-26T21:25:54.354Z,9.30
2024-03-26T21:28:25.908Z,9.40
2024-03-26T21:31:01.496Z,8.40
2024-03-26T21:33:33.116Z,8.30
2024-03-26T21:38:36.226Z,8.90
2024-03-26T21:41:08.461Z,9.00
2024-03-26T21:43:40.988Z,9.80
2024-03-26T21:46:12.536Z,7.90
2024-03-26T21:48:44.088Z,8.80
2024-03-26T21:51:19.370Z,9.70
2024-03-26T21:53:51.706Z,7.90
2024-03-26T21:56:23.884Z,7.70
2024-03-26T21:58:55.635Z,8.80
2024-03-26T22:03:57.116Z,7.10
2024-03-26T22:11:29.124Z,6.50
2024-03-26T22:16:30.797Z,7.40
2024-03-26T22:21:32.882Z,8.20
2024-03-26T22:26:35.715Z,10.00
2024-03-26T22:29:07.348Z,10.50
2024-03-26T22:34:09.434Z,9.20
2024-03-26T22:36:41.194Z,8.70
2024-03-26T22:41:43.283Z,10.70
2024-03-26T22:46:44.758Z,9.90
2024-03-26T22:51:46.229Z,9.30
2024-03-26T22:54:18.001Z,9.60
2024-03-26T22:56:52.519Z,9.60
2024-03-26T22:59:26.437Z,9.90
2024-03-26T23:01:58.186Z,12.40
2024-03-26T23:04:30.158Z,10.50
2024-03-26T23:07:01.713Z,10.20
2024-03-26T23:12:03.388Z,12.70
2024-03-26T23:14:34.943Z,9.60
2024-03-26T23:19:36.153Z,8.20
2024-03-26T23:22:08.223Z,8.40
2024-03-26T23:24:39.736Z,10.80
2024-03-26T23:27:11.293Z,9.00
2024-03-26T23:29:42.846Z,9.20
2024-03-26T23:32:15.024Z,8.80
2024-03-26T23:34:46.575Z,9.20
2024-03-26T23:37:18.131Z,9.40
2024-03-26T23:44:49.938Z,9.90
2024-03-26T23:47:22.103Z,8.40
2024-03-26T23:49:54.275Z,8.20
2024-03-26T23:52:25.837Z,8.00
2024-03-26T23:54:57.795Z,11.60
2024-03-26T23:57:29.577Z,12.50
